createdAt,value
2023-07-02T00:00:19.735Z,0.00
2023-07-02T00:01:19.794Z,0.00
2023-07-02T00:02:20.069Z,0.00
2023-07-02T00:03:20.065Z,0.00
2023-07-02T00:04:20.045Z,0.00
2023-07-02T00:05:20.052Z,0.00
2023-07-02T00:06:20.116Z,0.00
2023-07-02T00:07:20.255Z,0.00
2023-07-02T00:08:20.295Z,0.00
2023-07-02T00:09:20.319Z,0.00
2023-07-02T00:10:20.388Z,0.00
2023-07-02T00:11:20.460Z,0.00
2023-07-02T00:12:20.540Z,0.00
2023-07-02T00:13:20.637Z,0.00
2023-07-02T00:14:20.696Z,0.00
2023-07-02T00:15:20.751Z,0.00
2023-07-02T00:16:20.854Z,0.00
2023-07-02T00:17:20.936Z,0.00
2023-07-02T00:18:21.011Z,0.00
2023-07-02T00:19:21.398Z,0.00
2023-07-02T00:20:21.175Z,0.00
2023-07-02T00:21:21.236Z,0.00
2023-07-02T00:22:21.401Z,0.00
2023-07-02T00:23:21.407Z,0.00
2023-07-02T00:24:21.521Z,0.00
2023-07-02T00:25:21.564Z,0.00
2023-07-02T00:26:21.667Z,0.00
2023-07-02T00:27:21.758Z,0.00
2023-07-02T00:28:21.853Z,0.00
2023-07-02T00:29:21.898Z,0.00
2023-07-02T00:30:21.968Z,0.00
2023-07-02T00:31:22.086Z,0.00
2023-07-02T00:32:22.166Z,0.00
2023-07-02T00:33:22.200Z,0.00
2023-07-02T00:34:22.253Z,0.00
2023-07-02T00:35:22.322Z,0.00
2023-07-02T00:36:22.385Z,0.00
2023-07-02T00:37:22.469Z,0.00
2023-07-02T00:38:22.525Z,0.00
2023-07-02T00:39:22.600Z,0.00
2023-07-02T00:40:22.661Z,0.00
2023-07-02T00:41:22.740Z,0.00
2023-07-02T00:42:22.798Z,0.00
2023-07-02T00:43:22.974Z,0.00
2023-07-02T00:44:24.476Z,0.00
2023-07-02T00:45:23.042Z,0.00
2023-07-02T00:46:23.183Z,0.00
2023-07-02T00:47:23.214Z,0.00
2023-07-02T00:48:23.273Z,0.00
2023-07-02T00:49:23.348Z,0.00
2023-07-02T00:50:23.394Z,0.00
2023-07-02T00:51:23.476Z,0.00
2023-07-02T00:52:23.540Z,0.00
2023-07-02T00:53:23.655Z,0.00
2023-07-02T00:54:23.729Z,0.00
2023-07-02T00:55:23.779Z,0.00
2023-07-02T00:56:23.882Z,0.00
2023-07-02T00:57:23.944Z,0.00
2023-07-02T00:58:24.016Z,0.00
2023-07-02T00:59:24.104Z,0.00
2023-07-02T01:00:24.164Z,0.00
2023-07-02T01:01:24.294Z,0.00
2023-07-02T01:02:24.386Z,0.00
2023-07-02T01:03:24.514Z,0.00
2023-07-02T01:04:24.553Z,0.00
2023-07-02T01:05:24.779Z,0.00
2023-07-02T01:06:24.684Z,0.00
2023-07-02T01:07:24.877Z,0.00
2023-07-02T01:08:24.885Z,0.00
2023-07-02T01:09:24.969Z,0.00
2023-07-02T01:10:25.046Z,0.00
2023-07-02T01:11:25.153Z,0.00
2023-07-02T01:12:25.211Z,0.00
2023-07-02T01:13:25.348Z,0.00
2023-07-02T01:14:25.368Z,0.00
2023-07-02T01:15:25.474Z,0.00
2023-07-02T01:16:25.564Z,0.00
2023-07-02T01:17:25.671Z,0.00
2023-07-02T01:18:25.723Z,0.00
2023-07-02T01:19:25.807Z,0.00
2023-07-02T01:20:25.897Z,0.00
2023-07-02T01:21:25.974Z,0.00
2023-07-02T01:22:26.041Z,0.00
2023-07-02T01:23:26.156Z,0.00
2023-07-02T01:24:26.227Z,0.00
2023-07-02T01:25:26.323Z,0.00
2023-07-02T01:26:26.409Z,0.00
2023-07-02T01:27:26.518Z,0.00
2023-07-02T01:28:26.588Z,0.00
2023-07-02T01:29:26.686Z,0.00
2023-07-02T01:30:26.731Z,0.00
2023-07-02T01:31:26.870Z,0.00
2023-07-02T01:32:26.946Z,0.00
2023-07-02T01:33:27.042Z,0.00
2023-07-02T01:34:27.085Z,0.00
2023-07-02T01:35:27.271Z,0.00
2023-07-02T01:36:27.260Z,0.00
2023-07-02T01:37:27.328Z,0.00
2023-07-02T01:38:27.405Z,0.00
2023-07-02T01:39:27.488Z,0.00
2023-07-02T01:40:27.534Z,0.00
2023-07-02T01:41:27.614Z,0.00
2023-07-02T01:42:27.668Z,0.00
2023-07-02T01:43:27.796Z,0.00
2023-07-02T01:44:27.835Z,0.00
2023-07-02T01:45:27.949Z,0.00
2023-07-02T01:46:28.103Z,0.00
2023-07-02T01:47:28.142Z,0.00
2023-07-02T01:48:28.230Z,0.00
2023-07-02T01:49:28.309Z,0.00
2023-07-02T01:50:28.358Z,0.00
2023-07-02T01:51:28.474Z,0.00
2023-07-02T01:52:28.548Z,0.00
2023-07-02T01:53:28.641Z,0.00
2023-07-02T01:54:28.797Z,0.00
2023-07-02T01:55:28.795Z,0.00
2023-07-02T01:56:28.875Z,0.00
2023-07-02T01:57:28.981Z,0.00
2023-07-02T01:58:29.080Z,0.00
2023-07-02T01:59:29.138Z,0.00
2023-07-02T02:00:29.201Z,0.00
2023-07-02T02:01:29.355Z,0.00
2023-07-02T02:02:29.543Z,0.00
2023-07-02T02:03:29.690Z,0.00
2023-07-02T02:04:29.584Z,0.00
2023-07-02T02:05:29.659Z,0.00
2023-07-02T02:06:29.720Z,0.00
2023-07-02T02:07:29.821Z,0.00
2023-07-02T02:08:29.938Z,0.00
2023-07-02T02:09:29.989Z,0.00
2023-07-02T02:10:30.042Z,0.00
2023-07-02T02:11:30.147Z,0.00
2023-07-02T02:12:30.207Z,0.00
2023-07-02T02:13:30.330Z,0.00
2023-07-02T02:14:30.393Z,0.00
2023-07-02T02:15:30.602Z,0.00
2023-07-02T02:16:30.663Z,0.00
2023-07-02T02:17:30.678Z,0.00
2023-07-02T02:18:30.736Z,0.00
2023-07-02T02:19:30.793Z,0.00
2023-07-02T02:20:30.859Z,0.00
2023-07-02T02:21:30.969Z,0.00
2023-07-02T02:22:31.051Z,0.00
2023-07-02T02:23:31.199Z,0.00
2023-07-02T02:24:31.238Z,0.00
2023-07-02T02:25:31.339Z,0.00
2023-07-02T02:26:31.410Z,0.00
2023-07-02T02:27:31.526Z,0.00
2023-07-02T02:28:31.600Z,0.00
2023-07-02T02:29:31.660Z,0.00
2023-07-02T02:30:31.743Z,0.00
2023-07-02T02:31:31.979Z,0.00
2023-07-02T02:32:31.993Z,0.00
2023-07-02T02:33:32.049Z,0.00
2023-07-02T02:34:32.099Z,0.00
2023-07-02T02:35:32.210Z,0.00
2023-07-02T02:36:32.260Z,0.00
2023-07-02T02:37:32.379Z,0.00
2023-07-02T02:38:32.500Z,0.00
2023-07-02T02:39:32.556Z,0.00
2023-07-02T02:40:32.643Z,0.00
2023-07-02T02:41:32.742Z,0.00
2023-07-02T02:42:32.834Z,0.00
2023-07-02T02:43:32.995Z,0.00
2023-07-02T02:44:32.995Z,4.00
2023-07-02T02:45:33.095Z,4.00
2023-07-02T02:46:33.146Z,0.00
2023-07-02T02:47:33.256Z,0.00
2023-07-02T02:48:33.345Z,4.00
2023-07-02T02:49:33.404Z,4.00
2023-07-02T02:50:33.488Z,0.00
2023-07-02T02:51:33.588Z,4.00
2023-07-02T02:52:33.636Z,8.00
2023-07-02T02:53:33.766Z,4.00
2023-07-02T02:54:33.813Z,8.00
2023-07-02T02:55:33.913Z,8.00
2023-07-02T02:56:33.999Z,8.00
2023-07-02T02:57:34.104Z,8.00
2023-07-02T02:58:34.179Z,12.00
2023-07-02T02:59:34.268Z,12.00
2023-07-02T03:00:34.311Z,16.00
2023-07-02T03:01:34.469Z,16.00
2023-07-02T03:02:34.592Z,16.00
2023-07-02T03:03:34.664Z,20.00
2023-07-02T03:04:34.713Z,20.00
2023-07-02T03:05:34.768Z,20.00
2023-07-02T03:06:34.836Z,20.00
2023-07-02T03:07:34.963Z,24.00
2023-07-02T03:08:35.009Z,28.00
2023-07-02T03:09:35.110Z,32.00
2023-07-02T03:10:35.195Z,40.00
2023-07-02T03:11:35.288Z,40.00
2023-07-02T03:12:35.318Z,48.00
2023-07-02T03:13:35.453Z,52.00
2023-07-02T03:14:35.497Z,60.00
2023-07-02T03:15:35.602Z,68.00
2023-07-02T03:16:35.837Z,72.00
2023-07-02T03:17:35.834Z,80.00
2023-07-02T03:18:35.889Z,88.00
2023-07-02T03:19:35.937Z,96.00
2023-07-02T03:20:36.028Z,104.00
2023-07-02T03:21:36.124Z,112.00
2023-07-02T03:22:36.207Z,120.00
2023-07-02T03:23:36.330Z,128.00
2023-07-02T03:24:36.382Z,140.00
2023-07-02T03:25:36.465Z,152.00
2023-07-02T03:26:36.565Z,168.00
2023-07-02T03:27:36.704Z,188.00
2023-07-02T03:28:36.771Z,200.00
2023-07-02T03:29:36.823Z,220.00
2023-07-02T03:30:36.922Z,240.00
2023-07-02T03:31:37.062Z,260.00
2023-07-02T03:32:37.121Z,280.00
2023-07-02T03:33:37.195Z,304.00
2023-07-02T03:34:37.244Z,328.00
2023-07-02T03:35:37.337Z,352.00
2023-07-02T03:36:37.420Z,376.00
2023-07-02T03:37:37.498Z,396.00
2023-07-02T03:38:37.606Z,416.00
2023-07-02T03:39:37.666Z,444.00
2023-07-02T03:40:37.740Z,472.00
2023-07-02T03:41:37.823Z,516.00
2023-07-02T03:42:37.900Z,564.00
2023-07-02T03:43:38.027Z,620.00
2023-07-02T03:44:38.063Z,692.00
2023-07-02T03:45:38.153Z,776.00
2023-07-02T03:46:38.270Z,864.00
2023-07-02T03:47:38.323Z,960.00
2023-07-02T03:48:38.397Z,1056.00
2023-07-02T03:49:38.485Z,1160.00
2023-07-02T03:50:38.523Z,1256.00
2023-07-02T03:51:38.603Z,1316.00
2023-07-02T03:52:38.687Z,1356.00
2023-07-02T03:53:38.801Z,1352.00
2023-07-02T03:54:38.835Z,1344.00
2023-07-02T03:55:38.935Z,1344.00
2023-07-02T03:56:39.026Z,1288.00
2023-07-02T03:57:39.114Z,1260.00
2023-07-02T03:58:39.211Z,1236.00
2023-07-02T03:59:39.308Z,1288.00
2023-07-02T04:00:39.385Z,1308.00
2023-07-02T04:01:39.488Z,1340.00
2023-07-02T04:02:39.704Z,1352.00
2023-07-02T04:03:39.788Z,1428.00
2023-07-02T04:04:39.741Z,1452.00
2023-07-02T04:05:39.790Z,1500.00
2023-07-02T04:06:39.880Z,1596.00
2023-07-02T04:07:39.959Z,1748.00
2023-07-02T04:08:40.065Z,1884.00
2023-07-02T04:09:40.145Z,2128.00
2023-07-02T04:10:40.222Z,2208.00
2023-07-02T04:11:40.322Z,2264.00
2023-07-02T04:12:40.396Z,2260.00
2023-07-02T04:13:40.527Z,2232.00
2023-07-02T04:14:40.590Z,2252.00
2023-07-02T04:15:40.660Z,2200.00
2023-07-02T04:16:40.799Z,2080.00
2023-07-02T04:17:40.857Z,1840.00
2023-07-02T04:18:40.933Z,1744.00
2023-07-02T04:19:41.024Z,1640.00
2023-07-02T04:20:41.078Z,1548.00
2023-07-02T04:21:41.190Z,1444.00
2023-07-02T04:22:41.265Z,1284.00
2023-07-02T04:23:41.387Z,1160.00
2023-07-02T04:24:41.443Z,1124.00
2023-07-02T04:25:46.673Z,1160.00
2023-07-02T04:27:03.448Z,1200.00
2023-07-02T04:27:50.402Z,1216.00
2023-07-02T04:28:41.833Z,1216.00
2023-07-02T04:29:41.918Z,1192.00
2023-07-02T04:30:41.996Z,1172.00
2023-07-02T04:31:42.139Z,1116.00
2023-07-02T04:32:42.192Z,1056.00
2023-07-02T04:33:42.265Z,1036.00
2023-07-02T04:34:42.331Z,1000.00
2023-07-02T04:35:42.423Z,960.00
2023-07-02T04:36:42.502Z,932.00
2023-07-02T04:37:42.589Z,936.00
2023-07-02T04:38:42.703Z,936.00
2023-07-02T04:39:42.757Z,944.00
2023-07-02T04:40:42.841Z,952.00
2023-07-02T04:41:42.923Z,944.00
2023-07-02T04:42:42.992Z,888.00
2023-07-02T04:43:43.113Z,812.00
2023-07-02T04:44:43.156Z,768.00
2023-07-02T04:45:43.278Z,760.00
2023-07-02T04:46:43.310Z,780.00
2023-07-02T04:47:43.394Z,780.00
2023-07-02T04:48:43.535Z,848.00
2023-07-02T04:49:43.562Z,984.00
2023-07-02T04:50:43.678Z,1240.00
2023-07-02T04:51:43.740Z,1588.00
2023-07-02T04:52:43.827Z,1856.00
2023-07-02T04:53:43.919Z,1812.00
2023-07-02T04:54:43.989Z,1776.00
2023-07-02T04:55:44.038Z,1948.00
2023-07-02T04:56:44.134Z,2012.00
2023-07-02T04:57:44.217Z,2268.00
2023-07-02T04:58:44.341Z,2332.00
2023-07-02T04:59:44.401Z,2312.00
2023-07-02T05:00:44.490Z,2708.00
2023-07-02T05:01:44.653Z,2988.00
2023-07-02T05:02:44.700Z,2124.00
2023-07-02T05:03:44.805Z,1784.00
2023-07-02T05:04:44.918Z,1756.00
2023-07-02T05:05:44.924Z,1732.00
2023-07-02T05:06:45.014Z,1792.00
2023-07-02T05:07:45.101Z,1972.00
2023-07-02T05:08:45.200Z,2204.00
2023-07-02T05:09:45.241Z,2428.00
2023-07-02T05:10:45.349Z,2224.00
2023-07-02T05:11:45.415Z,1980.00
2023-07-02T05:12:45.502Z,2044.00
2023-07-02T05:13:45.618Z,2056.00
2023-07-02T05:14:45.662Z,2048.00
2023-07-02T05:15:45.754Z,2152.00
2023-07-02T05:16:45.860Z,2008.00
2023-07-02T05:17:45.955Z,1948.00
2023-07-02T05:18:46.048Z,2064.00
2023-07-02T05:19:46.104Z,2352.00
2023-07-02T05:20:46.317Z,2624.00
2023-07-02T05:21:46.262Z,2840.00
2023-07-02T05:22:46.355Z,3656.00
2023-07-02T05:23:46.460Z,4944.00
2023-07-02T05:24:46.551Z,4376.00
2023-07-02T05:25:46.631Z,4272.00
2023-07-02T05:26:46.722Z,4164.00
2023-07-02T05:27:46.806Z,3436.00
2023-07-02T05:28:46.897Z,3628.00
2023-07-02T05:29:46.952Z,3812.00
2023-07-02T05:30:47.343Z,4196.00
2023-07-02T05:31:47.178Z,5428.00
2023-07-02T05:32:47.290Z,7112.00
2023-07-02T05:33:47.364Z,8228.00
2023-07-02T05:34:47.407Z,10120.00
2023-07-02T05:35:47.468Z,11644.00
2023-07-02T05:36:47.546Z,11568.00
2023-07-02T05:37:47.642Z,12740.00
2023-07-02T05:38:47.733Z,15156.00
2023-07-02T05:39:47.789Z,17184.00
2023-07-02T05:40:48.184Z,29056.00
2023-07-02T05:41:47.939Z,22336.00
2023-07-02T05:42:48.026Z,19200.00
2023-07-02T05:43:48.116Z,17152.00
2023-07-02T05:44:48.178Z,17024.00
2023-07-02T05:45:48.247Z,19200.00
2023-07-02T05:46:48.409Z,17952.00
2023-07-02T05:47:48.434Z,17440.00
2023-07-02T05:48:48.513Z,33280.00
2023-07-02T05:49:48.583Z,17632.00
2023-07-02T05:50:48.996Z,20288.00
2023-07-02T05:51:48.745Z,20224.00
2023-07-02T05:52:48.855Z,19904.00
2023-07-02T05:53:48.943Z,35136.00
2023-07-02T05:54:49.011Z,31200.00
2023-07-02T05:55:49.101Z,40160.00
2023-07-02T05:56:49.172Z,73088.00
2023-07-02T05:57:49.231Z,25728.00
2023-07-02T05:58:49.332Z,34976.00
2023-07-02T05:59:49.422Z,17440.00
2023-07-02T06:00:49.777Z,27808.00
2023-07-02T06:01:49.557Z,33792.00
2023-07-02T06:02:49.825Z,46304.00
2023-07-02T06:03:49.872Z,28064.00
2023-07-02T06:04:50.006Z,74048.00
2023-07-02T06:05:50.240Z,69152.00
2023-07-02T06:06:49.951Z,63776.00
2023-07-02T06:07:50.026Z,26336.00
2023-07-02T06:08:50.154Z,36096.00
2023-07-02T06:09:50.200Z,57536.00
2023-07-02T06:10:50.554Z,25984.00
2023-07-02T06:11:50.371Z,49664.00
2023-07-02T06:12:50.452Z,76704.00
2023-07-02T06:13:50.564Z,34208.00
2023-07-02T06:14:50.621Z,58624.00
2023-07-02T06:15:50.700Z,18496.00
2023-07-02T06:16:50.777Z,18528.00
2023-07-02T06:17:50.893Z,20800.00
2023-07-02T06:18:51.023Z,19328.00
2023-07-02T06:19:50.990Z,18304.00
2023-07-02T06:20:51.334Z,16928.00
2023-07-02T06:21:51.163Z,19840.00
2023-07-02T06:22:51.245Z,19936.00
2023-07-02T06:23:51.334Z,21536.00
2023-07-02T06:24:51.416Z,24768.00
2023-07-02T06:25:51.470Z,28640.00
2023-07-02T06:26:51.579Z,32896.00
2023-07-02T06:27:51.645Z,24896.00
2023-07-02T06:28:51.771Z,23648.00
2023-07-02T06:29:51.843Z,28992.00
2023-07-02T06:30:52.150Z,23296.00
2023-07-02T06:31:52.020Z,21920.00
2023-07-02T06:32:52.113Z,20512.00
2023-07-02T06:33:52.193Z,19264.00
2023-07-02T06:34:52.265Z,18016.00
2023-07-02T06:35:52.356Z,19104.00
2023-07-02T06:36:52.412Z,22208.00
2023-07-02T06:37:52.531Z,27360.00
2023-07-02T06:38:52.574Z,63008.00
2023-07-02T06:39:52.659Z,25856.00
2023-07-02T06:40:52.762Z,24352.00
2023-07-02T06:41:52.805Z,23232.00
2023-07-02T06:42:52.877Z,25216.00
2023-07-02T06:43:53.007Z,47424.00
2023-07-02T06:44:53.037Z,68192.00
2023-07-02T06:45:53.127Z,31936.00
2023-07-02T06:46:53.225Z,46528.00
2023-07-02T06:47:53.325Z,37472.00
2023-07-02T06:48:53.397Z,24448.00
2023-07-02T06:49:53.461Z,22112.00
2023-07-02T06:50:53.529Z,22272.00
2023-07-02T06:51:53.627Z,22112.00
2023-07-02T06:52:53.666Z,23936.00
2023-07-02T06:53:53.753Z,19488.00
2023-07-02T06:54:53.825Z,18688.00
2023-07-02T06:55:53.894Z,18368.00
2023-07-02T06:56:54.155Z,18720.00
2023-07-02T06:57:54.073Z,17952.00
2023-07-02T06:58:54.173Z,18752.00
2023-07-02T06:59:54.246Z,18112.00
2023-07-02T07:00:54.307Z,18912.00
2023-07-02T07:01:54.450Z,18752.00
2023-07-02T07:02:54.561Z,18880.00
2023-07-02T07:03:54.601Z,18080.00
2023-07-02T07:04:54.650Z,19360.00
2023-07-02T07:05:54.717Z,22784.00
2023-07-02T07:06:54.790Z,28480.00
2023-07-02T07:07:54.880Z,25408.00
2023-07-02T07:08:54.980Z,24320.00
2023-07-02T07:09:55.049Z,27744.00
2023-07-02T07:10:55.133Z,26144.00
2023-07-02T07:11:55.212Z,29536.00
2023-07-02T07:12:55.293Z,28416.00
2023-07-02T07:13:55.398Z,33248.00
2023-07-02T07:14:55.518Z,48064.00
2023-07-02T07:15:55.543Z,49696.00
2023-07-02T07:16:55.603Z,49504.00
2023-07-02T07:17:55.790Z,41600.00
2023-07-02T07:18:55.839Z,46080.00
2023-07-02T07:19:55.856Z,104736.00
2023-07-02T07:20:55.957Z,93696.00
2023-07-02T07:21:56.030Z,73856.00
2023-07-02T07:22:56.117Z,47520.00
2023-07-02T07:23:56.198Z,41888.00
2023-07-02T07:24:56.273Z,103616.00
2023-07-02T07:25:56.379Z,94400.00
2023-07-02T07:26:56.440Z,96512.00
2023-07-02T07:27:56.552Z,60352.00
2023-07-02T07:28:56.631Z,29216.00
2023-07-02T07:29:56.712Z,36832.00
2023-07-02T07:30:56.813Z,100000.00
2023-07-02T07:31:56.966Z,99232.00
2023-07-02T07:32:57.022Z,99168.00
2023-07-02T07:33:57.082Z,97184.00
2023-07-02T07:34:57.151Z,96416.00
2023-07-02T07:35:57.228Z,95872.00
2023-07-02T07:36:57.313Z,98560.00
2023-07-02T07:37:57.388Z,96288.00
2023-07-02T07:38:59.834Z,93952.00
2023-07-02T07:39:57.582Z,88896.00
2023-07-02T07:40:57.624Z,84896.00
2023-07-02T07:41:57.791Z,84288.00
2023-07-02T07:42:57.767Z,84544.00
2023-07-02T07:43:57.887Z,81696.00
2023-07-02T07:44:57.942Z,82784.00
2023-07-02T07:45:58.101Z,81024.00
2023-07-02T07:46:58.084Z,83520.00
2023-07-02T07:47:58.175Z,81280.00
2023-07-02T07:48:58.258Z,90976.00
2023-07-02T07:49:58.325Z,91840.00
2023-07-02T07:50:58.387Z,92000.00
2023-07-02T07:51:58.498Z,94496.00
2023-07-02T07:52:58.567Z,96864.00
2023-07-02T07:53:58.726Z,63040.00
2023-07-02T07:54:58.806Z,49504.00
2023-07-02T07:55:58.863Z,55776.00
2023-07-02T07:56:58.919Z,50464.00
2023-07-02T07:57:59.020Z,35520.00
2023-07-02T07:58:59.111Z,47808.00
2023-07-02T07:59:59.202Z,49376.00
2023-07-02T08:00:59.276Z,54112.00
2023-07-02T08:01:59.519Z,50784.00
2023-07-02T08:02:59.489Z,38848.00
2023-07-02T08:03:59.710Z,48416.00
2023-07-02T08:04:59.673Z,90368.00
2023-07-02T08:05:59.680Z,82976.00
2023-07-02T08:06:59.736Z,75808.00
2023-07-02T08:07:59.821Z,63552.00
2023-07-02T08:08:59.948Z,55488.00
2023-07-02T08:10:00.003Z,56736.00
2023-07-02T08:11:00.090Z,43904.00
2023-07-02T08:12:00.185Z,38912.00
2023-07-02T08:13:00.272Z,42784.00
2023-07-02T08:14:00.384Z,35328.00
2023-07-02T08:15:00.429Z,34336.00
2023-07-02T08:16:00.558Z,40576.00
2023-07-02T08:17:00.584Z,47584.00
2023-07-02T08:18:00.704Z,48896.00
2023-07-02T08:19:00.758Z,34912.00
2023-07-02T08:20:00.831Z,38976.00
2023-07-02T08:21:00.887Z,34752.00
2023-07-02T08:22:00.988Z,32768.00
2023-07-02T08:23:01.050Z,27776.00
2023-07-02T08:24:01.190Z,26656.00
2023-07-02T08:25:01.231Z,28160.00
2023-07-02T08:26:01.326Z,29056.00
2023-07-02T08:27:01.387Z,28928.00
2023-07-02T08:28:01.500Z,44288.00
2023-07-02T08:29:01.621Z,40352.00
2023-07-02T08:30:01.676Z,84896.00
2023-07-02T08:31:01.883Z,42560.00
2023-07-02T08:32:01.813Z,36768.00
2023-07-02T08:33:01.926Z,31840.00
2023-07-02T08:34:01.992Z,30240.00
2023-07-02T08:35:02.044Z,30208.00
2023-07-02T08:36:02.143Z,43392.00
2023-07-02T08:37:02.192Z,46528.00
2023-07-02T08:38:02.292Z,49600.00
2023-07-02T08:39:02.362Z,39584.00
2023-07-02T08:40:02.588Z,35616.00
2023-07-02T08:41:02.684Z,31648.00
2023-07-02T08:42:02.620Z,31008.00
2023-07-02T08:43:02.756Z,31552.00
2023-07-02T08:44:02.822Z,31456.00
2023-07-02T08:45:02.857Z,30528.00
2023-07-02T08:46:02.963Z,27744.00
2023-07-02T08:47:03.025Z,46144.00
2023-07-02T08:48:03.162Z,42272.00
2023-07-02T08:49:03.230Z,37472.00
2023-07-02T08:50:03.291Z,34336.00
2023-07-02T08:51:03.332Z,34592.00
2023-07-02T08:52:03.437Z,33600.00
2023-07-02T08:53:03.518Z,31104.00
2023-07-02T08:54:03.641Z,49888.00
2023-07-02T08:55:03.703Z,30368.00
2023-07-02T08:56:03.802Z,60096.00
2023-07-02T08:57:03.852Z,35520.00
2023-07-02T08:58:03.953Z,19264.00
2023-07-02T08:59:04.060Z,15096.00
2023-07-02T09:00:04.132Z,12556.00
2023-07-02T09:01:04.244Z,10716.00
2023-07-02T09:02:04.295Z,9212.00
2023-07-02T09:03:04.448Z,8308.00
2023-07-02T09:04:04.585Z,7768.00
2023-07-02T09:05:04.749Z,7600.00
2023-07-02T09:06:04.656Z,7568.00
2023-07-02T09:07:04.758Z,7836.00
2023-07-02T09:08:04.773Z,8540.00
2023-07-02T09:09:04.909Z,9612.00
2023-07-02T09:10:04.938Z,11248.00
2023-07-02T09:11:05.026Z,18240.00
2023-07-02T09:12:05.102Z,16448.00
2023-07-02T09:13:05.185Z,16960.00
2023-07-02T09:14:05.295Z,17408.00
2023-07-02T09:15:05.335Z,16800.00
2023-07-02T09:16:05.402Z,14676.00
2023-07-02T09:17:05.547Z,13260.00
2023-07-02T09:18:05.642Z,12136.00
2023-07-02T09:19:05.698Z,11132.00
2023-07-02T09:20:05.736Z,9436.00
2023-07-02T09:21:05.822Z,7864.00
2023-07-02T09:22:05.902Z,6800.00
2023-07-02T09:23:06.004Z,6040.00
2023-07-02T09:24:06.081Z,5528.00
2023-07-02T09:25:06.174Z,5420.00
2023-07-02T09:26:06.278Z,5576.00
2023-07-02T09:27:06.338Z,5968.00
2023-07-02T09:28:06.410Z,6212.00
2023-07-02T09:29:06.536Z,7116.00
2023-07-02T09:30:06.579Z,8304.00
2023-07-02T09:31:06.870Z,9120.00
2023-07-02T09:32:10.631Z,9688.00
2023-07-02T09:33:06.986Z,9992.00
2023-07-02T09:34:07.155Z,10396.00
2023-07-02T09:35:07.013Z,10928.00
2023-07-02T09:36:07.104Z,11256.00
2023-07-02T09:37:07.281Z,11836.00
2023-07-02T09:38:07.266Z,12724.00
2023-07-02T09:39:07.377Z,14276.00
2023-07-02T09:40:07.961Z,18592.00
2023-07-02T09:41:07.528Z,62912.00
2023-07-02T09:42:07.586Z,26496.00
2023-07-02T09:43:07.647Z,22240.00
2023-07-02T09:44:07.749Z,21248.00
2023-07-02T09:45:07.819Z,20160.00
2023-07-02T09:46:07.904Z,19296.00
2023-07-02T09:47:07.974Z,19584.00
2023-07-02T09:48:08.077Z,20736.00
2023-07-02T09:49:08.163Z,20608.00
2023-07-02T09:50:08.205Z,21408.00
2023-07-02T09:51:08.299Z,23008.00
2023-07-02T09:52:08.378Z,25792.00
2023-07-02T09:53:08.467Z,26752.00
2023-07-02T09:54:08.616Z,74976.00
2023-07-02T09:55:08.669Z,35872.00
2023-07-02T09:56:08.708Z,32992.00
2023-07-02T09:57:08.801Z,27904.00
2023-07-02T09:58:08.857Z,25856.00
2023-07-02T09:59:08.954Z,24640.00
2023-07-02T10:00:09.003Z,23488.00
2023-07-02T10:01:09.077Z,24896.00
2023-07-02T10:02:09.235Z,22784.00
2023-07-02T10:03:09.320Z,21824.00
2023-07-02T10:04:09.384Z,17824.00
2023-07-02T10:05:09.525Z,16384.00
2023-07-02T10:06:09.504Z,15344.00
2023-07-02T10:07:09.585Z,14072.00
2023-07-02T10:08:09.628Z,12376.00
2023-07-02T10:09:09.756Z,11128.00
2023-07-02T10:10:09.804Z,10956.00
2023-07-02T10:11:09.882Z,11036.00
2023-07-02T10:12:09.946Z,10904.00
2023-07-02T10:13:10.061Z,11352.00
2023-07-02T10:14:10.135Z,11724.00
2023-07-02T10:15:10.210Z,14736.00
2023-07-02T10:16:10.270Z,17312.00
2023-07-02T10:17:10.363Z,16736.00
2023-07-02T10:18:10.450Z,17568.00
2023-07-02T10:19:10.546Z,18912.00
2023-07-02T10:20:10.633Z,19584.00
2023-07-02T10:21:10.694Z,18784.00
2023-07-02T10:22:10.773Z,17696.00
2023-07-02T10:23:10.873Z,18528.00
2023-07-02T10:24:10.979Z,18848.00
2023-07-02T10:25:11.033Z,19648.00
2023-07-02T10:26:11.100Z,20256.00
2023-07-02T10:27:11.196Z,20864.00
2023-07-02T10:28:11.268Z,22080.00
2023-07-02T10:29:11.371Z,20224.00
2023-07-02T10:30:11.418Z,17312.00
2023-07-02T10:31:11.518Z,14612.00
2023-07-02T10:32:11.589Z,12748.00
2023-07-02T10:33:11.671Z,10980.00
2023-07-02T10:34:11.775Z,9452.00
2023-07-02T10:35:11.856Z,8784.00
2023-07-02T10:36:11.927Z,8648.00
2023-07-02T10:37:12.037Z,8960.00
2023-07-02T10:38:12.108Z,9980.00
2023-07-02T10:39:12.224Z,11260.00
2023-07-02T10:40:12.257Z,13764.00
2023-07-02T10:41:12.352Z,14408.00
2023-07-02T10:42:12.428Z,17024.00
2023-07-02T10:43:12.514Z,18944.00
2023-07-02T10:44:12.665Z,35584.00
2023-07-02T10:45:12.655Z,21792.00
2023-07-02T10:46:12.790Z,27392.00
2023-07-02T10:47:12.817Z,26688.00
2023-07-02T10:48:12.889Z,24544.00
2023-07-02T10:49:13.010Z,25792.00
2023-07-02T10:50:13.041Z,22272.00
2023-07-02T10:51:13.126Z,42784.00
2023-07-02T10:52:13.171Z,41664.00
2023-07-02T10:53:13.279Z,39392.00
2023-07-02T10:54:13.338Z,23296.00
2023-07-02T10:55:13.428Z,37120.00
2023-07-02T10:56:13.501Z,32576.00
2023-07-02T10:57:13.592Z,27616.00
2023-07-02T10:58:13.656Z,32384.00
2023-07-02T10:59:14.002Z,32768.00
2023-07-02T11:00:13.826Z,16304.00
2023-07-02T11:01:13.940Z,15092.00
2023-07-02T11:02:14.015Z,14984.00
2023-07-02T11:03:14.200Z,17248.00
2023-07-02T11:04:14.281Z,18720.00
2023-07-02T11:05:14.313Z,18848.00
2023-07-02T11:06:14.337Z,17728.00
2023-07-02T11:07:14.417Z,16800.00
2023-07-02T11:08:14.487Z,15820.00
2023-07-02T11:09:14.571Z,15616.00
2023-07-02T11:10:14.724Z,18048.00
2023-07-02T11:11:14.716Z,17024.00
2023-07-02T11:12:14.788Z,17472.00
2023-07-02T11:13:14.860Z,17568.00
2023-07-02T11:14:14.938Z,17216.00
2023-07-02T11:15:15.019Z,16736.00
2023-07-02T11:16:15.090Z,16448.00
2023-07-02T11:17:15.300Z,16832.00
2023-07-02T11:18:15.432Z,17120.00
2023-07-02T11:19:15.322Z,17280.00
2023-07-02T11:20:15.422Z,17088.00
2023-07-02T11:21:15.473Z,16608.00
2023-07-02T11:22:15.549Z,15840.00
2023-07-02T11:23:15.634Z,15308.00
2023-07-02T11:24:15.723Z,15112.00
2023-07-02T11:25:15.803Z,14764.00
2023-07-02T11:26:15.862Z,14764.00
2023-07-02T11:27:15.941Z,15084.00
2023-07-02T11:28:16.032Z,16096.00
2023-07-02T11:29:16.152Z,17536.00
2023-07-02T11:30:16.212Z,19648.00
2023-07-02T11:31:16.353Z,21984.00
2023-07-02T11:32:16.363Z,22528.00
2023-07-02T11:33:16.439Z,21984.00
2023-07-02T11:34:18.823Z,23232.00
2023-07-02T11:35:16.594Z,22784.00
2023-07-02T11:36:16.657Z,21888.00
2023-07-02T11:37:16.742Z,21312.00
2023-07-02T11:38:16.810Z,20800.00
2023-07-02T11:39:16.989Z,20736.00
2023-07-02T11:40:16.975Z,21024.00
2023-07-02T11:41:17.865Z,21056.00
2023-07-02T11:42:17.123Z,20672.00
2023-07-02T11:43:17.222Z,20384.00
2023-07-02T11:44:17.312Z,19712.00
2023-07-02T11:45:17.385Z,18240.00
2023-07-02T11:46:17.504Z,17632.00
2023-07-02T11:47:17.586Z,17344.00
2023-07-02T11:48:17.629Z,16928.00
2023-07-02T11:49:17.739Z,16704.00
2023-07-02T11:50:26.334Z,16672.00
2023-07-02T11:51:17.873Z,16960.00
2023-07-02T11:52:17.954Z,17664.00
2023-07-02T11:53:18.029Z,18240.00
2023-07-02T11:54:18.115Z,19392.00
2023-07-02T11:55:18.192Z,20416.00
2023-07-02T11:56:18.276Z,20288.00
2023-07-02T11:57:18.374Z,20256.00
2023-07-02T11:58:18.426Z,20224.00
2023-07-02T11:59:18.523Z,19488.00
2023-07-02T12:00:18.555Z,18432.00
2023-07-02T12:01:18.722Z,17536.00
2023-07-02T12:02:18.726Z,17024.00
2023-07-02T12:03:18.870Z,16928.00
2023-07-02T12:04:18.977Z,16736.00
2023-07-02T12:05:18.988Z,16384.00
2023-07-02T12:06:19.038Z,16000.00
2023-07-02T12:07:19.132Z,16000.00
2023-07-02T12:08:19.202Z,16288.00
2023-07-02T12:09:19.301Z,16288.00
2023-07-02T12:10:19.341Z,16224.00
2023-07-02T12:11:19.423Z,16864.00
2023-07-02T12:12:19.492Z,16800.00
2023-07-02T12:13:19.597Z,16480.00
2023-07-02T12:14:19.682Z,18336.00